Time;durP1;ratioP1;P1;durP2;ratioP2;P2;SDS_P1;SDS_P2;PMS_P1;PMS_P2;Temp;Humidity;BMP_temperature;BMP_pressure;BME280_temperature;BME280_humidity;BME280_pressure;Samples;Min_cycle;Max_cycle;Signal;HPM_P1;HPM_P2
2021/08/21 00:00:14;;;;;;;0.10;0.10;;;17.00;99.90;;;;;;5061732;28;20220;-82
2021/08/21 00:02:40;;;;;;;0.27;0.27;;;17.10;99.90;;;;;;5069488;28;20218;-83
2021/08/21 00:05:07;;;;;;;0.10;0.10;;;17.10;99.90;;;;;;5057933;28;20212;-83
2021/08/21 00:07:33;;;;;;;0.20;0.20;;;17.00;99.90;;;;;;5068464;28;20185;-82
2021/08/21 00:10:00;;;;;;;0.20;0.20;;;16.90;99.90;;;;;;5062994;28;20216;-82
2021/08/21 00:12:25;;;;;;;0.20;0.20;;;16.80;99.90;;;;;;5057422;28;20216;-83
2021/08/21 00:14:52;;;;;;;0.40;0.30;;;16.80;99.90;;;;;;5056653;28;20217;-83
2021/08/21 00:17:18;;;;;;;0.10;0.10;;;16.70;99.90;;;;;;5058726;28;20186;-82
2021/08/21 00:19:44;;;;;;;0.10;0.10;;;16.70;99.90;;;;;;5062913;28;20266;-82
2021/08/21 00:22:09;;;;;;;0.13;0.13;;;16.60;99.90;;;;;;5053008;28;20189;-83
2021/08/21 00:24:36;;;;;;;0.13;0.13;;;16.60;99.90;;;;;;5069048;28;20297;-83
2021/08/21 00:27:01;;;;;;;0.10;0.10;;;16.60;99.90;;;;;;5053894;28;20216;-83
2021/08/21 00:29:27;;;;;;;0.30;0.30;;;16.50;99.90;;;;;;5060396;28;20288;-82
2021/08/21 00:31:52;;;;;;;0.10;0.10;;;16.50;99.90;;;;;;5067146;28;20184;-82
2021/08/21 00:34:18;;;;;;;0.30;0.30;;;16.50;99.90;;;;;;5065490;28;20602;-83
2021/08/21 00:36:45;;;;;;;0.20;0.20;;;16.50;99.90;;;;;;5066524;28;20181;-83
2021/08/21 00:39:10;;;;;;;0.13;0.13;;;16.40;99.90;;;;;;5065070;28;20275;-83
2021/08/21 00:41:36;;;;;;;0.10;0.10;;;16.60;99.90;;;;;;5060907;28;20276;-83
2021/08/21 00:44:05;;;;;;;0.10;0.10;;;16.70;99.90;;;;;;5068635;28;20187;-82
2021/08/21 00:46:31;;;;;;;0.20;0.20;;;16.60;99.90;;;;;;5066137;28;20690;-82
2021/08/21 00:48:57;;;;;;;0.20;0.20;;;16.50;99.90;;;;;;5071695;28;20189;-83
2021/08/21 00:51:22;;;;;;;0.20;0.20;;;16.40;99.90;;;;;;5068833;28;20296;-82
2021/08/21 00:53:48;;;;;;;0.10;0.10;;;16.30;99.90;;;;;;5070678;28;20196;-82
2021/08/21 00:56:14;;;;;;;0.27;0.27;;;16.30;99.90;;;;;;5071402;28;20196;-82
2021/08/21 00:58:40;;;;;;;0.23;0.20;;;16.20;99.90;;;;;;5065732;28;20206;-83
2021/08/21 01:01:07;;;;;;;0.40;0.40;;;16.20;99.90;;;;;;5071455;28;20209;-82
2021/08/21 01:03:32;;;;;;;0.40;0.40;;;16.20;99.90;;;;;;5067162;28;20225;-83
2021/08/21 01:05:58;;;;;;;0.20;0.20;;;16.20;99.90;;;;;;5072516;28;20232;-83
2021/08/21 01:08:23;;;;;;;0.17;0.10;;;16.20;99.90;;;;;;5070683;28;20203;-83
2021/08/21 01:10:49;;;;;;;0.10;0.10;;;16.10;99.90;;;;;;5073390;28;20208;-83
2021/08/21 01:13:15;;;;;;;0.10;0.10;;;16.00;99.90;;;;;;5072781;28;20219;-83
2021/08/21 01:15:40;;;;;;;0.10;0.10;;;15.90;99.90;;;;;;5067735;28;20644;-83
2021/08/21 01:18:06;;;;;;;0.43;0.10;;;15.90;99.90;;;;;;5059897;28;20192;-82
2021/08/21 01:20:33;;;;;;;0.20;0.20;;;15.90;99.90;;;;;;5072873;28;20214;-83
2021/08/21 01:23:02;;;;;;;0.10;0.10;;;15.90;99.90;;;;;;5064318;28;20193;-82
2021/08/21 01:25:29;;;;;;;0.10;0.10;;;16.00;99.90;;;;;;5062320;28;20239;-83
2021/08/21 01:27:55;;;;;;;0.30;0.30;;;16.00;99.90;;;;;;5067573;28;20649;-83
2021/08/21 01:30:21;;;;;;;0.10;0.10;;;16.10;99.90;;;;;;5065385;28;20216;-82
2021/08/21 01:32:46;;;;;;;0.90;0.37;;;16.20;99.90;;;;;;5070791;28;20216;-82
2021/08/21 01:35:12;;;;;;;0.20;0.20;;;16.20;99.90;;;;;;5062956;28;20215;-82
2021/08/21 01:37:37;;;;;;;0.10;0.10;;;16.30;99.90;;;;;;5061302;28;20208;-83
2021/08/21 01:40:04;;;;;;;0.20;0.20;;;16.40;99.90;;;;;;5067942;28;20278;-83
2021/08/21 01:42:30;;;;;;;0.10;0.10;;;16.50;99.90;;;;;;5071828;28;20208;-82
2021/08/21 01:44:56;;;;;;;0.10;0.10;;;16.60;99.90;;;;;;5071940;28;20262;-83
2021/08/21 01:47:22;;;;;;;0.20;0.20;;;16.60;99.90;;;;;;5068163;28;20185;-83
2021/08/21 01:50:03;;;;;;;0.37;0.37;;;16.40;99.90;;;;;;5065665;28;20632;-83
2021/08/21 01:52:29;;;;;;;0.20;0.20;;;16.50;99.90;;;;;;5069324;28;20220;-83
2021/08/21 01:54:55;;;;;;;0.20;0.20;;;16.70;99.90;;;;;;5066834;28;20254;-83
2021/08/21 01:57:20;;;;;;;0.10;0.10;;;16.90;99.90;;;;;;5071287;28;20302;-81
2021/08/21 01:59:50;;;;;;;0.10;0.10;;;16.90;99.90;;;;;;5070061;28;20216;-83
2021/08/21 02:02:18;;;;;;;0.20;0.20;;;16.90;99.90;;;;;;5069103;28;20199;-83
2021/08/21 02:04:43;;;;;;;0.30;0.30;;;16.70;99.90;;;;;;5068834;28;20185;-83
2021/08/21 02:07:09;;;;;;;0.30;0.30;;;16.50;99.90;;;;;;5071579;28;20222;-82
2021/08/21 02:09:35;;;;;;;0.10;0.10;;;16.40;99.90;;;;;;5071628;28;20243;-83
2021/08/21 02:12:04;;;;;;;0.10;0.10;;;16.30;99.90;;;;;;5071634;28;20242;-82
2021/08/21 02:14:30;;;;;;;0.50;0.50;;;16.30;99.90;;;;;;5066438;28;20193;-82
2021/08/21 02:16:59;;;;;;;0.20;0.20;;;16.50;99.90;;;;;;5072243;28;20206;-83
2021/08/21 02:19:25;;;;;;;1.33;0.40;;;16.60;99.90;;;;;;5065626;28;20247;-83
2021/08/21 02:21:52;;;;;;;0.17;0.17;;;16.50;99.90;;;;;;5064186;28;20665;-83
2021/08/21 02:24:23;;;;;;;0.20;0.20;;;16.50;99.90;;;;;;5066272;28;20668;-82
2021/08/21 02:26:49;;;;;;;0.10;0.10;;;16.50;99.90;;;;;;5067602;28;20339;-83
2021/08/21 02:29:15;;;;;;;0.10;0.10;;;16.50;99.90;;;;;;5052983;28;20213;-81
2021/08/21 02:31:41;;;;;;;0.17;0.17;;;16.60;99.90;;;;;;5063086;28;20189;-84
2021/08/21 02:34:07;;;;;;;0.27;0.27;;;16.60;99.90;;;;;;5058607;28;20688;-84
2021/08/21 02:36:33;;;;;;;0.10;0.10;;;16.70;99.90;;;;;;5060984;28;20271;-84
2021/08/21 02:38:59;;;;;;;0.10;0.10;;;16.70;99.90;;;;;;5064421;28;20211;-82
2021/08/21 02:41:24;;;;;;;0.20;0.20;;;16.60;99.90;;;;;;5057161;28;20244;-82
2021/08/21 02:43:50;;;;;;;0.20;0.20;;;16.50;99.90;;;;;;5066059;28;20240;-82
2021/08/21 02:46:16;;;;;;;0.13;0.13;;;16.40;99.90;;;;;;5072671;28;20216;-81
2021/08/21 02:48:41;;;;;;;0.20;0.20;;;16.30;99.90;;;;;;5065706;28;20215;-82
2021/08/21 02:51:07;;;;;;;0.10;0.10;;;16.10;99.90;;;;;;5064874;28;20248;-82
2021/08/21 02:53:33;;;;;;;0.20;0.20;;;16.00;99.90;;;;;;5069615;28;20196;-82
2021/08/21 02:56:00;;;;;;;0.10;0.10;;;15.90;99.90;;;;;;5066138;28;20204;-82
2021/08/21 02:58:27;;;;;;;0.20;0.20;;;16.00;99.90;;;;;;5058847;28;20579;-82
2021/08/21 03:00:52;;;;;;;0.10;0.10;;;16.10;99.90;;;;;;5066257;28;20201;-80
2021/08/21 03:03:18;;;;;;;0.50;0.40;;;16.20;99.90;;;;;;5071905;28;20265;-82
2021/08/21 03:05:43;;;;;;;0.10;0.10;;;16.20;99.90;;;;;;5067956;28;20215;-82
2021/08/21 03:08:09;;;;;;;0.10;0.10;;;16.30;99.90;;;;;;5069797;28;20200;-81
2021/08/21 03:10:35;;;;;;;0.40;0.23;;;16.30;99.90;;;;;;5069483;28;20203;-82
2021/08/21 03:13:02;;;;;;;0.17;0.17;;;16.20;99.90;;;;;;5072729;28;20275;-81
2021/08/21 03:15:28;;;;;;;0.10;0.10;;;16.20;99.90;;;;;;5072347;28;20652;-82
2021/08/21 03:17:55;;;;;;;0.10;0.10;;;16.20;99.90;;;;;;5069711;28;20185;-82
2021/08/21 03:20:21;;;;;;;0.10;0.10;;;16.30;99.90;;;;;;5072397;28;20211;-81
2021/08/21 03:22:47;;;;;;;0.10;0.10;;;16.40;99.90;;;;;;5072257;28;20655;-82
2021/08/21 03:25:12;;;;;;;0.10;0.10;;;16.50;99.90;;;;;;5070462;28;20213;-82
2021/08/21 03:27:38;;;;;;;0.10;0.10;;;16.60;99.90;;;;;;5071226;28;20192;-82
2021/08/21 03:30:05;;;;;;;0.10;0.10;;;16.60;99.90;;;;;;5068269;28;20224;-82
2021/08/21 03:32:31;;;;;;;0.37;0.37;;;16.60;99.90;;;;;;5069732;28;20595;-80
2021/08/21 03:34:57;;;;;;;0.33;0.30;;;16.70;99.90;;;;;;5100427;28;20188;-82
2021/08/21 03:37:22;;;;;;;0.20;0.20;;;16.70;99.90;;;;;;5070563;28;20844;-80
2021/08/21 03:39:48;;;;;;;0.57;0.30;;;16.70;99.90;;;;;;5066825;28;20216;-82
2021/08/21 03:42:14;;;;;;;0.10;0.10;;;16.70;99.90;;;;;;5069436;28;20212;-81
2021/08/21 03:44:39;;;;;;;0.10;0.10;;;16.60;99.90;;;;;;5069517;28;20181;-81
2021/08/21 03:47:05;;;;;;;0.20;0.20;;;16.60;99.90;;;;;;5069884;28;20298;-81
2021/08/21 03:49:31;;;;;;;0.27;0.27;;;16.50;99.90;;;;;;5072919;28;20226;-83
2021/08/21 03:51:56;;;;;;;0.10;0.10;;;16.50;99.90;;;;;;5068164;28;20185;-82
2021/08/21 03:54:22;;;;;;;0.10;0.10;;;16.40;99.90;;;;;;5068822;28;20192;-82
2021/08/21 03:56:47;;;;;;;0.20;0.10;;;16.30;99.90;;;;;;5070556;28;20219;-80
2021/08/21 03:59:13;;;;;;;0.17;0.17;;;16.30;99.90;;;;;;5069862;28;20319;-81
2021/08/21 04:01:38;;;;;;;0.20;0.20;;;16.40;99.90;;;;;;5071756;28;20196;-82
2021/08/21 04:04:04;;;;;;;0.20;0.20;;;16.30;99.90;;;;;;5073094;28;20204;-82
2021/08/21 04:06:29;;;;;;;0.23;0.10;;;16.10;99.90;;;;;;5072939;28;20588;-81
2021/08/21 04:08:55;;;;;;;0.23;0.20;;;16.10;99.90;;;;;;5076670;28;20668;-82
2021/08/21 04:11:20;;;;;;;0.10;0.10;;;16.10;99.90;;;;;;5074769;28;20215;-82
2021/08/21 04:13:46;;;;;;;0.10;0.10;;;16.20;99.90;;;;;;5074277;28;20239;-82
2021/08/21 04:16:12;;;;;;;0.23;0.23;;;16.30;99.90;;;;;;5076810;28;20199;-81
2021/08/21 04:18:37;;;;;;;0.10;0.10;;;16.30;99.90;;;;;;5072991;28;20222;-80
2021/08/21 04:21:04;;;;;;;0.40;0.40;;;16.40;99.90;;;;;;5073071;28;20216;-81
2021/08/21 04:23:29;;;;;;;0.23;0.23;;;16.40;99.90;;;;;;5072069;28;20204;-82
2021/08/21 04:25:59;;;;;;;0.20;0.20;;;16.50;99.90;;;;;;5075679;28;20220;-82
2021/08/21 04:28:26;;;;;;;0.10;0.10;;;16.50;99.90;;;;;;5075332;28;20196;-82
2021/08/21 04:30:52;;;;;;;0.13;0.13;;;16.50;99.90;;;;;;5072482;28;20200;-81
2021/08/21 04:33:17;;;;;;;0.20;0.20;;;16.50;99.90;;;;;;5071514;28;20267;-82
2021/08/21 04:35:43;;;;;;;0.47;0.23;;;16.40;99.90;;;;;;5077631;28;20205;-82
2021/08/21 04:38:08;;;;;;;0.40;0.40;;;16.30;99.90;;;;;;5074245;28;20223;-82
2021/08/21 04:40:34;;;;;;;0.20;0.20;;;16.20;99.90;;;;;;5068085;28;20204;-81
2021/08/21 04:42:59;;;;;;;0.13;0.13;;;16.10;99.90;;;;;;5073585;28;20282;-82
2021/08/21 04:45:25;;;;;;;0.20;0.20;;;16.00;99.90;;;;;;5070975;28;20676;-85
2021/08/21 04:47:50;;;;;;;0.20;0.20;;;16.20;99.90;;;;;;5062458;28;20188;-84
2021/08/21 04:50:16;;;;;;;0.20;0.20;;;16.30;99.90;;;;;;5073217;28;20204;-84
2021/08/21 04:52:42;;;;;;;0.20;0.20;;;16.30;99.90;;;;;;5071391;28;20215;-85
2021/08/21 04:55:08;;;;;;;0.30;0.30;;;16.30;99.90;;;;;;5070512;28;20230;-85
2021/08/21 04:57:33;;;;;;;0.20;0.20;;;16.40;99.90;;;;;;5070878;28;20573;-84
2021/08/21 04:59:59;;;;;;;0.33;0.33;;;16.30;99.90;;;;;;5071605;28;20200;-82
2021/08/21 05:02:25;;;;;;;0.20;0.20;;;16.20;99.90;;;;;;5089243;28;20540;-82
2021/08/21 05:04:50;;;;;;;0.20;0.20;;;16.20;99.90;;;;;;5075185;28;20191;-82
2021/08/21 05:07:16;;;;;;;0.43;0.30;;;16.30;99.90;;;;;;5071894;28;20265;-82
2021/08/21 05:09:41;;;;;;;0.20;0.20;;;16.60;99.90;;;;;;5071471;28;20254;-82
2021/08/21 05:12:07;;;;;;;0.10;0.10;;;16.90;99.90;;;;;;5074192;28;20274;-81
2021/08/21 05:14:33;;;;;;;0.30;0.30;;;17.20;99.90;;;;;;5072878;28;20193;-82
2021/08/21 05:16:58;;;;;;;0.27;0.27;;;17.40;99.90;;;;;;5074074;28;20199;-84
2021/08/21 05:21:52;;;;;;;0.10;0.10;;;17.70;99.90;;;;;;5073779;28;20189;-85
2021/08/21 05:24:17;;;;;;;0.20;0.20;;;17.80;99.90;;;;;;5070378;28;20204;-84
2021/08/21 05:26:47;;;;;;;0.10;0.10;;;17.90;99.90;;;;;;5063999;28;20211;-84
2021/08/21 05:29:14;;;;;;;0.10;0.10;;;18.00;99.90;;;;;;5070333;28;20680;-85
2021/08/21 05:31:40;;;;;;;0.30;0.30;;;18.10;99.90;;;;;;5064119;28;20222;-84
2021/08/21 05:34:06;;;;;;;0.10;0.10;;;18.20;99.90;;;;;;5059541;28;20668;-84
2021/08/21 05:36:31;;;;;;;0.27;0.27;;;18.20;99.90;;;;;;5071719;28;20688;-81
2021/08/21 05:38:57;;;;;;;0.20;0.20;;;18.30;99.90;;;;;;5070144;28;20866;-81
2021/08/21 05:41:22;;;;;;;0.10;0.10;;;18.00;99.90;;;;;;5061077;28;20747;-81
2021/08/21 05:43:48;;;;;;;0.67;0.67;;;17.70;99.90;;;;;;5066528;28;20196;-82
2021/08/21 05:46:13;;;;;;;0.10;0.10;;;17.60;99.90;;;;;;5066298;28;20350;-83
2021/08/21 05:48:39;;;;;;;0.30;0.30;;;17.40;99.90;;;;;;5065466;28;20314;-82
2021/08/21 05:51:05;;;;;;;0.10;0.10;;;17.20;99.90;;;;;;5092705;28;20233;-82
2021/08/21 05:53:32;;;;;;;0.30;0.20;;;17.20;99.90;;;;;;5065327;28;20188;-82
2021/08/21 05:55:58;;;;;;;0.20;0.20;;;17.30;99.90;;;;;;5064520;28;20190;-83
2021/08/21 05:58:23;;;;;;;0.10;0.10;;;17.60;99.90;;;;;;5060911;28;20286;-82
2021/08/21 06:00:49;;;;;;;0.10;0.10;;;18.00;99.90;;;;;;5067566;28;20260;-82
2021/08/21 06:03:16;;;;;;;0.90;0.37;;;18.10;99.90;;;;;;5070812;28;20668;-82
2021/08/21 06:05:42;;;;;;;0.10;0.10;;;18.00;99.90;;;;;;5061178;28;20297;-81
2021/08/21 06:08:08;;;;;;;0.20;0.20;;;18.30;99.90;;;;;;5065351;28;20227;-81
2021/08/21 06:10:33;;;;;;;0.10;0.10;;;18.50;99.90;;;;;;5070268;28;20214;-82
2021/08/21 06:12:59;;;;;;;0.20;0.20;;;18.60;99.90;;;;;;5066183;28;20195;-82
2021/08/21 06:15:24;;;;;;;0.30;0.30;;;18.40;99.90;;;;;;5070433;28;20189;-81
2021/08/21 06:17:50;;;;;;;0.77;0.23;;;18.60;99.90;;;;;;5063326;28;20199;-82
2021/08/21 06:20:16;;;;;;;1.03;0.30;;;18.80;99.90;;;;;;5059551;28;20247;-82
2021/08/21 06:22:41;;;;;;;0.30;0.30;;;18.90;99.90;;;;;;5064288;28;20177;-82
2021/08/21 06:25:09;;;;;;;0.40;0.40;;;19.00;99.90;;;;;;5061626;28;20202;-82
2021/08/21 06:27:35;;;;;;;0.20;0.20;;;18.90;99.90;;;;;;5061889;28;20194;-82
2021/08/21 06:30:01;;;;;;;0.20;0.20;;;19.20;99.90;;;;;;5063988;28;20288;-81
2021/08/21 06:32:26;;;;;;;0.30;0.30;;;19.30;99.90;;;;;;5066126;28;20255;-82
2021/08/21 06:34:52;;;;;;;0.23;0.23;;;19.40;99.90;;;;;;5061178;28;20667;-81
2021/08/21 06:37:17;;;;;;;0.23;0.23;;;19.70;99.90;;;;;;5074168;28;20193;-82
2021/08/21 06:39:43;;;;;;;0.27;0.27;;;19.50;99.90;;;;;;5061302;28;20211;-81
2021/08/21 06:42:08;;;;;;;0.30;0.30;;;20.00;99.90;;;;;;5065920;28;20199;-82
2021/08/21 06:44:34;;;;;;;0.23;0.20;;;20.00;99.90;;;;;;5070196;28;20202;-86
2021/08/21 06:46:59;;;;;;;0.30;0.30;;;20.10;99.90;;;;;;5063666;28;20220;-85
2021/08/21 06:49:25;;;;;;;0.40;0.40;;;20.50;99.90;;;;;;5070648;28;20216;-83
2021/08/21 06:51:51;;;;;;;0.23;0.23;;;20.80;99.90;;;;;;5071146;28;20191;-84
2021/08/21 06:54:16;;;;;;;0.20;0.20;;;21.10;99.90;;;;;;5070943;28;20188;-84
2021/08/21 06:56:42;;;;;;;0.30;0.30;;;21.30;99.90;;;;;;5071198;28;20706;-84
2021/08/21 06:59:08;;;;;;;0.57;0.57;;;21.60;99.90;;;;;;5070894;28;20204;-84
2021/08/21 07:01:38;;;;;;;0.20;0.20;;;21.70;99.90;;;;;;5071224;28;20185;-83
2021/08/21 07:04:04;;;;;;;0.30;0.30;;;21.80;99.90;;;;;;5071223;28;20245;-84
2021/08/21 07:06:29;;;;;;;0.20;0.20;;;21.90;99.90;;;;;;5071946;28;20216;-84
2021/08/21 07:08:55;;;;;;;0.27;0.27;;;21.90;99.90;;;;;;5070841;28;20181;-84
2021/08/21 07:11:20;;;;;;;0.63;0.63;;;22.00;99.90;;;;;;5070961;28;20278;-84
2021/08/21 07:13:46;;;;;;;0.20;0.20;;;22.10;99.90;;;;;;5072192;28;20264;-84
2021/08/21 07:16:13;;;;;;;0.30;0.30;;;22.20;99.90;;;;;;5068833;28;20207;-84
2021/08/21 07:18:38;;;;;;;0.83;0.50;;;22.00;99.90;;;;;;5071752;28;20201;-84
2021/08/21 07:21:04;;;;;;;0.20;0.20;;;22.00;99.90;;;;;;5070337;28;20207;-83
2021/08/21 07:23:30;;;;;;;0.17;0.17;;;21.60;99.90;;;;;;5070624;28;20287;-84
2021/08/21 07:25:55;;;;;;;0.47;0.30;;;21.80;99.90;;;;;;5071675;28;20227;-84
2021/08/21 07:28:21;;;;;;;0.20;0.20;;;21.40;99.90;;;;;;5070367;28;20181;-83
2021/08/21 07:30:46;;;;;;;0.30;0.30;;;21.50;99.90;;;;;;5071870;28;20201;-82
2021/08/21 07:33:12;;;;;;;0.30;0.30;;;21.90;99.90;;;;;;5071925;28;20181;-84
2021/08/21 07:35:37;;;;;;;0.30;0.30;;;22.20;99.90;;;;;;5065438;28;20243;-84
2021/08/21 07:38:04;;;;;;;0.20;0.20;;;22.30;99.90;;;;;;5050015;28;20190;-84
2021/08/21 07:40:30;;;;;;;0.20;0.20;;;22.50;99.90;;;;;;5050305;28;20248;-84
2021/08/21 07:42:55;;;;;;;0.20;0.20;;;22.70;99.90;;;;;;5050507;28;20210;-84
2021/08/21 07:45:21;;;;;;;0.20;0.20;;;23.00;99.90;;;;;;5051520;28;20193;-83
2021/08/21 07:47:49;;;;;;;0.23;0.20;;;23.20;99.90;;;;;;5067060;28;20645;-84
2021/08/21 07:50:15;;;;;;;0.30;0.30;;;23.10;99.90;;;;;;5071379;28;20193;-84
2021/08/21 07:52:45;;;;;;;0.47;0.47;;;22.90;99.90;;;;;;5070356;28;20580;-83
2021/08/21 07:55:11;;;;;;;0.53;0.40;;;23.30;99.90;;;;;;5070100;28;20226;-84
2021/08/21 07:57:37;;;;;;;0.40;0.40;;;23.40;99.90;;;;;;5070248;28;20200;-82
2021/08/21 08:00:04;;;;;;;0.23;0.23;;;23.50;99.90;;;;;;5070240;28;20208;-84
2021/08/21 08:02:30;;;;;;;0.40;0.40;;;23.60;99.90;;;;;;5070394;28;20181;-84
2021/08/21 08:04:55;;;;;;;0.30;0.27;;;23.30;99.90;;;;;;5070010;28;20181;-83
2021/08/21 08:07:21;;;;;;;0.17;0.17;;;23.10;99.90;;;;;;5073185;28;20207;-84
2021/08/21 08:09:47;;;;;;;0.40;0.40;;;23.10;99.90;;;;;;5071892;28;20203;-84
2021/08/21 08:12:13;;;;;;;0.40;0.40;;;23.40;99.90;;;;;;5071604;28;20252;-84
2021/08/21 08:14:38;;;;;;;0.23;0.23;;;23.40;99.90;;;;;;5070151;28;20278;-84
2021/08/21 08:17:04;;;;;;;0.33;0.33;;;23.80;99.90;;;;;;5070304;28;20196;-84
2021/08/21 08:19:30;;;;;;;0.53;0.20;;;23.80;99.90;;;;;;5056279;28;20575;-84
2021/08/21 08:21:56;;;;;;;0.60;0.30;;;23.90;99.90;;;;;;5070099;28;20215;-84
2021/08/21 08:24:23;;;;;;;0.60;0.50;;;23.90;99.90;;;;;;5058332;28;20664;-85
2021/08/21 08:26:49;;;;;;;0.53;0.53;;;24.00;99.90;;;;;;5065825;28;20212;-83
2021/08/21 08:29:15;;;;;;;1.37;0.60;;;23.80;99.90;;;;;;5062989;28;20188;-83
2021/08/21 08:31:40;;;;;;;0.23;0.23;;;23.40;99.90;;;;;;5064527;28;20230;-83
2021/08/21 08:34:06;;;;;;;0.40;0.40;;;23.00;99.90;;;;;;5072873;28;20680;-82
2021/08/21 08:36:31;;;;;;;0.20;0.20;;;23.10;99.90;;;;;;5063011;28;20193;-83
2021/08/21 08:38:57;;;;;;;0.50;0.50;;;23.60;99.90;;;;;;5066375;28;20189;-83
2021/08/21 08:41:23;;;;;;;0.30;0.30;;;23.30;99.90;;;;;;5068334;28;20205;-83
2021/08/21 08:43:49;;;;;;;0.83;0.70;;;23.70;99.90;;;;;;5068571;28;20272;-83
2021/08/21 08:46:21;;;;;;;0.70;0.40;;;23.90;99.90;;;;;;5069382;28;20644;-83
2021/08/21 08:48:48;;;;;;;0.83;0.57;;;24.30;99.90;;;;;;5063895;28;20196;-83
2021/08/21 08:51:15;;;;;;;0.50;0.50;;;24.40;99.90;;;;;;5060252;28;20342;-83
2021/08/21 08:53:41;;;;;;;0.50;0.50;;;24.80;99.90;;;;;;5064066;28;20177;-83
2021/08/21 08:56:06;;;;;;;0.47;0.47;;;25.10;99.90;;;;;;5072711;28;20189;-82
2021/08/21 08:58:32;;;;;;;0.47;0.47;;;24.90;99.90;;;;;;5069928;28;20188;-84
2021/08/21 09:00:59;;;;;;;0.53;0.47;;;25.00;99.90;;;;;;5071443;28;20204;-83
2021/08/21 09:03:26;;;;;;;0.53;0.50;;;25.20;99.90;;;;;;5066821;28;20189;-84
2021/08/21 09:05:53;;;;;;;0.50;0.50;;;24.90;99.90;;;;;;5080442;28;20206;-84
2021/08/21 09:08:26;;;;;;;0.73;0.40;;;25.10;99.90;;;;;;5072167;28;20186;-83
2021/08/21 09:10:52;;;;;;;0.80;0.60;;;25.10;99.90;;;;;;5071930;28;20693;-83
2021/08/21 09:13:19;;;;;;;0.73;0.30;;;24.60;99.90;;;;;;5083057;28;20184;-84
2021/08/21 09:15:45;;;;;;;0.37;0.37;;;25.10;99.90;;;;;;5071397;28;20189;-84
2021/08/21 09:18:14;;;;;;;0.63;0.63;;;25.40;99.90;;;;;;5059566;28;20263;-84
2021/08/21 09:20:49;;;;;;;0.67;0.47;;;24.50;99.90;;;;;;5067938;28;20259;-84
2021/08/21 09:23:22;;;;;;;0.20;0.20;;;24.20;99.90;;;;;;5067311;28;20196;-83
2021/08/21 09:25:53;;;;;;;0.83;0.83;;;24.70;99.90;;;;;;5081918;28;20579;-83
2021/08/21 09:28:24;;;;;;;0.43;0.43;;;24.60;99.90;;;;;;5063441;28;20185;-85
2021/08/21 09:31:07;;;;;;;1.50;0.50;;;24.40;99.90;;;;;;5072079;28;20707;-84
2021/08/21 09:33:34;;;;;;;0.60;0.60;;;25.10;99.90;;;;;;5064882;28;20645;-85
2021/08/21 09:36:00;;;;;;;0.50;0.50;;;25.20;99.90;;;;;;5070570;28;20185;-84
2021/08/21 09:38:31;;;;;;;1.20;0.40;;;25.20;99.90;;;;;;5058756;28;20190;-84
2021/08/21 09:41:09;;;;;;;0.30;0.30;;;25.20;99.90;;;;;;5072054;28;20656;-84
2021/08/21 09:43:36;;;;;;;0.40;0.40;;;25.20;99.90;;;;;;5068043;28;20213;-85
2021/08/21 09:46:14;;;;;;;0.30;0.30;;;25.00;99.90;;;;;;5069528;28;20205;-84
2021/08/21 09:49:01;;;;;;;1.00;0.40;;;25.30;99.90;;;;;;5071751;28;20181;-84
2021/08/21 09:51:36;;;;;;;0.40;0.40;;;25.30;99.90;;;;;;5070591;28;20189;-85
2021/08/21 09:54:05;;;;;;;0.60;0.60;;;25.30;99.90;;;;;;5070934;28;20176;-83
2021/08/21 09:56:39;;;;;;;0.40;0.40;;;25.20;99.90;;;;;;5072085;28;20276;-84
2021/08/21 09:59:06;;;;;;;0.40;0.30;;;25.40;99.90;;;;;;5062162;28;20185;-83
2021/08/21 10:01:32;;;;;;;0.63;0.57;;;25.90;99.90;;;;;;5066992;28;20528;-84
2021/08/21 10:03:58;;;;;;;0.83;0.40;;;26.30;99.90;;;;;;5067339;28;20549;-84
2021/08/21 10:06:25;;;;;;;0.50;0.50;;;26.50;99.90;;;;;;5071840;28;20205;-83
2021/08/21 10:09:00;;;;;;;0.33;0.33;;;26.30;99.90;;;;;;5071517;28;20178;-84
2021/08/21 10:11:27;;;;;;;7.33;0.50;;;26.20;99.90;;;;;;5080349;28;20268;-85
2021/08/21 10:13:53;;;;;;;0.40;0.40;;;26.50;99.90;;;;;;5062207;28;20661;-84
2021/08/21 10:16:19;;;;;;;1.57;1.00;;;26.60;99.90;;;;;;5063182;28;20665;-84
2021/08/21 10:18:48;;;;;;;0.57;0.57;;;26.60;99.90;;;;;;5076208;28;20189;-84
2021/08/21 10:21:15;;;;;;;0.70;0.40;;;26.20;99.90;;;;;;5063295;28;20735;-84
2021/08/21 10:23:44;;;;;;;0.30;0.30;;;26.00;99.90;;;;;;5063150;28;20592;-84
2021/08/21 10:26:39;;;;;;;0.30;0.30;;;26.40;99.90;;;;;;5064882;28;20296;-84
2021/08/21 10:29:10;;;;;;;0.50;0.50;;;26.50;99.90;;;;;;5066950;28;20660;-85
2021/08/21 10:31:39;;;;;;;0.67;0.67;;;26.50;99.90;;;;;;5071247;28;20185;-85
2021/08/21 10:34:06;;;;;;;0.23;0.23;;;26.70;99.90;;;;;;5069736;28;20272;-85
2021/08/21 10:37:04;;;;;;;0.53;0.53;;;26.60;99.90;;;;;;5069759;28;20578;-84
2021/08/21 10:39:35;;;;;;;0.30;0.30;;;27.00;99.90;;;;;;5044352;28;20267;-84
2021/08/21 10:42:29;;;;;;;0.70;0.30;;;27.30;99.90;;;;;;5066991;28;20239;-85
2021/08/21 10:44:57;;;;;;;1.17;0.80;;;27.50;99.90;;;;;;5060910;28;20185;-84
2021/08/21 10:47:32;;;;;;;0.67;0.67;;;26.70;99.90;;;;;;5069658;28;20217;-84
2021/08/21 10:49:59;;;;;;;0.27;0.27;;;26.50;99.90;;;;;;5063836;28;20228;-84
2021/08/21 10:52:52;;;;;;;0.30;0.30;;;27.00;99.90;;;;;;5065078;28;20204;-84
2021/08/21 10:55:28;;;;;;;0.80;0.80;;;27.20;99.90;;;;;;5059582;28;20189;-84
2021/08/21 10:58:09;;;;;;;1.10;0.40;;;26.40;99.90;;;;;;5066732;28;20177;-84
2021/08/21 11:00:38;;;;;;;0.20;0.20;;;26.80;99.90;;;;;;5065999;28;20618;-84
2021/08/21 11:03:04;;;;;;;0.53;0.53;;;26.20;99.90;;;;;;5064687;28;20181;-85
2021/08/21 11:06:06;;;;;;;0.57;0.57;;;26.30;99.90;;;;;;5070716;28;20221;-83
2021/08/21 11:08:52;;;;;;;0.30;0.30;;;27.00;99.90;;;;;;5071524;28;20177;-83
2021/08/21 11:11:41;;;;;;;0.40;0.40;;;27.00;99.90;;;;;;5060941;28;20210;-84
2021/08/21 11:14:20;;;;;;;0.43;0.43;;;27.10;99.90;;;;;;5063826;28;20558;-84
2021/08/21 11:16:52;;;;;;;0.30;0.30;;;26.50;99.90;;;;;;5065872;28;20173;-83
2021/08/21 11:19:27;;;;;;;1.10;0.83;;;26.80;99.90;;;;;;5067465;28;20262;-84
2021/08/21 11:22:12;;;;;;;0.50;0.50;;;27.10;99.90;;;;;;5070455;28;20290;-84
2021/08/21 11:24:57;;;;;;;0.70;0.70;;;27.00;99.90;;;;;;5062911;28;20254;-84
2021/08/21 11:27:26;;;;;;;0.90;0.90;;;26.60;99.90;;;;;;5068689;28;21856;-85
2021/08/21 11:30:13;;;;;;;0.67;0.43;;;26.40;99.90;;;;;;5070715;28;20212;-82
2021/08/21 11:32:44;;;;;;;0.70;0.60;;;26.50;99.90;;;;;;5062374;28;20656;-84
2021/08/21 11:35:37;;;;;;;0.50;0.50;;;26.60;99.90;;;;;;5068082;28;20637;-85
2021/08/21 11:38:06;;;;;;;0.67;0.60;;;26.30;99.90;;;;;;5062302;28;20182;-84
2021/08/21 11:40:52;;;;;;;0.47;0.47;;;26.40;99.90;;;;;;5063590;28;20204;-84
2021/08/21 11:43:29;;;;;;;0.70;0.70;;;27.00;99.90;;;;;;5052706;28;20182;-85
2021/08/21 11:45:57;;;;;;;0.53;0.53;;;26.50;99.90;;;;;;5058494;28;20213;-85
2021/08/21 11:48:27;;;;;;;0.50;0.50;;;26.90;99.90;;;;;;5070526;28;20181;-85
2021/08/21 11:50:53;;;;;;;0.40;0.40;;;27.40;99.90;;;;;;5068757;28;20676;-84
2021/08/21 11:53:21;;;;;;;0.60;0.40;;;28.00;99.90;;;;;;5069142;28;20185;-84
2021/08/21 11:55:47;;;;;;;0.37;0.37;;;28.00;99.90;;;;;;5082923;28;20657;-84
2021/08/21 11:58:14;;;;;;;0.67;0.67;;;27.80;99.90;;;;;;5058746;28;20204;-84
2021/08/21 12:00:42;;;;;;;0.40;0.40;;;28.10;99.90;;;;;;5069737;28;20204;-84
2021/08/21 12:03:11;;;;;;;0.50;0.50;;;28.60;99.90;;;;;;5069989;28;20525;-84
2021/08/21 12:05:44;;;;;;;0.67;0.63;;;28.90;99.90;;;;;;5059964;28;20278;-85
2021/08/21 12:08:25;;;;;;;0.50;0.50;;;29.00;99.90;;;;;;5067393;28;20717;-85
2021/08/21 12:11:03;;;;;;;0.68;0.68;;;29.30;99.90;;;;;;5069568;28;20668;-85
2021/08/21 12:13:36;;;;;;;0.32;0.32;;;29.50;99.90;;;;;;5068274;28;20177;-84
2021/08/21 12:16:07;;;;;;;0.65;0.65;;;29.60;99.90;;;;;;5069703;28;20189;-84
2021/08/21 12:18:35;;;;;;;0.68;0.50;;;29.80;99.90;;;;;;5068983;28;20185;-85
2021/08/21 12:21:02;;;;;;;0.55;0.55;;;29.80;99.90;;;;;;5067657;28;20331;-85
2021/08/21 12:23:28;;;;;;;0.50;0.50;;;29.90;99.90;;;;;;5067338;28;20185;-85
2021/08/21 12:26:00;;;;;;;1.42;1.00;;;29.10;99.90;;;;;;5073092;28;20208;-84
2021/08/21 12:28:34;;;;;;;0.75;0.55;;;28.60;99.90;;;;;;5071442;28;20176;-85
2021/08/21 12:31:08;;;;;;;0.63;0.63;;;29.00;99.90;;;;;;5056361;28;20204;-84
2021/08/21 12:33:37;;;;;;;0.60;0.60;;;29.00;99.90;;;;;;5065709;28;20665;-84
2021/08/21 12:36:19;;;;;;;0.50;0.50;;;29.00;99.90;;;;;;5065621;28;20600;-83
2021/08/21 12:39:00;;;;;;;1.50;0.75;;;28.50;99.90;;;;;;5071314;28;20235;-82
2021/08/21 12:41:27;;;;;;;0.47;0.43;;;27.80;99.90;;;;;;5059992;28;20208;-84
2021/08/21 12:44:15;;;;;;;1.03;0.47;;;27.60;99.90;;;;;;5071646;28;20232;-84
2021/08/21 12:47:03;;;;;;;0.38;0.38;;;28.00;99.90;;;;;;5078871;28;20240;-82
2021/08/21 12:49:32;;;;;;;1.47;1.10;;;28.30;99.90;;;;;;5065292;28;20694;-84
2021/08/21 12:52:01;;;;;;;0.63;0.63;;;28.40;99.90;;;;;;5060298;28;20177;-83
2021/08/21 12:54:35;;;;;;;0.43;0.43;;;28.80;99.90;;;;;;5079705;28;20219;-84